PORTS® Data Listing: 8519483 Bergen Point West Reach, NY

CO-OPS RAW PORTS DATA

************************      PRELIMINARY DATA      ************************** 

     THIS RAW DATA HAS NOT BEEN SUBJECT TO THE NATIONAL OCEAN SERVICE'S        
     QUALITY CONTROL OR QUALITY ASSURANCE PROCEDURES AND DOES NOT MEET         
     THE CRITERIA AND STANDARDS OF OFFICIAL NATIONAL OCEAN SERVICE             
     DATA.  IT IS RELEASED FOR LIMITED PUBLIC USE AS PRELIMINARY DATA TO       
     BE USED ONLY WITH APPROPRIATE CAUTION.                                    

************************      PRELIMINARY DATA      ************************** 


       CD   -   Calendar date
       T    -   Time
       TZ   -   Timezone
       PW   -   Predicted water level (feet above MLLW)
       OW   -   Observed water level (feet above MLLW)
       WS   -   Wind speed (knots)
       WD   -   Wind direction (degrees true)
       WG   -   Wind gust (knots)
       AT   -   Air temperature (degrees farenheit)
       WT   -   Water temperature (degrees farenheit)
       AP   -   Air pressure (millibars)
       SA   -   Salinty (PSU - Practical Salinity Units)
       SG   -   Specific gravity
       RH   -   Relative humidity
       AG   -   Air gap (feet)
       VI   -   Visibility (nautical miles)

       ** NOTE **
       A variable that has its data fields filled with "9"s, indicates that
       data was not collected for that sample period.
       **********


STATION NAME: Bergen Point West Reach (8519483)
****************************************************************************************************
    CD       T    TZ    PW     OW    WS   WD   WG    AT    WT    AP    SA    SG     RH    AG   VI
****************************************************************************************************
2019/11/18 19:54 EST    0.58   2.74 -999 -999 -999  40.8  49.1 1006.4 -9.9 -9.999 -99.9 -99.99 -9.99
2019/11/18 20:00 EST    0.63   2.80 -999 -999 -999  40.8  49.1 1006.4 -9.9 -9.999 -99.9 -99.99 -9.99
2019/11/18 20:06 EST    0.69   2.86 -999 -999 -999  41.0  49.1 1006.4 -9.9 -9.999 -99.9 -99.99 -9.99
2019/11/18 20:12 EST    0.75   2.95 -999 -999 -999  40.8  49.1 1006.3 -9.9 -9.999 -99.9 -99.99 -9.99
2019/11/18 20:18 EST    0.82   3.04 -999 -999 -999  40.8  49.1 1006.3 -9.9 -9.999 -99.9 -99.99 -9.99
2019/11/18 20:24 EST    0.89   3.12 -999 -999 -999  41.4  49.1 1006.2 -9.9 -9.999 -99.9 -99.99 -9.99
2019/11/18 20:30 EST    0.97   3.23 -999 -999 -999  41.2  49.1 1006.2 -9.9 -9.999 -99.9 -99.99 -9.99
2019/11/18 20:36 EST    1.06   3.34 -999 -999 -999  41.2  49.1 1006.3 -9.9 -9.999 -99.9 -99.99 -9.99
2019/11/18 20:42 EST    1.15   3.43 -999 -999 -999  41.2  49.1 1006.5 -9.9 -9.999 -99.9 -99.99 -9.99
2019/11/18 20:48 EST    1.25   3.52 -999 -999 -999  41.2  49.1 1006.5 -9.9 -9.999 -99.9 -99.99 -9.99
2019/11/18 20:54 EST    1.35   3.62 -999 -999 -999  41.2  49.1 1006.5 -9.9 -9.999 -99.9 -99.99 -9.99
2019/11/18 21:00 EST    1.46   3.71 -999 -999 -999  41.2  49.1 1006.5 -9.9 -9.999 -99.9 -99.99 -9.99
2019/11/18 21:06 EST    1.57   3.80 -999 -999 -999  41.2  49.1 1006.4 -9.9 -9.999 -99.9 -99.99 -9.99
2019/11/18 21:12 EST    1.69   3.89 -999 -999 -999  41.0  49.1 1006.4 -9.9 -9.999 -99.9 -99.99 -9.99
2019/11/18 21:18 EST    1.80   3.98 -999 -999 -999  41.2  49.1 1006.3 -9.9 -9.999 -99.9 -99.99 -9.99
2019/11/18 21:24 EST    1.92   4.09 -999 -999 -999  41.4  49.1 1006.3 -9.9 -9.999 -99.9 -99.99 -9.99
2019/11/18 21:30 EST    2.05   4.18 -999 -999 -999  41.4  49.1 1006.3 -9.9 -9.999 -99.9 -99.99 -9.99
2019/11/18 21:36 EST    2.17   4.23 -999 -999 -999  41.4  49.1 1006.3 -9.9 -9.999 -99.9 -99.99 -9.99
2019/11/18 21:42 EST    2.29   4.32 -999 -999 -999  41.2  49.1 1006.4 -9.9 -9.999 -99.9 -99.99 -9.99
2019/11/18 21:48 EST    2.42   4.45 -999 -999 -999  41.4  49.3 1006.4 -9.9 -9.999 -99.9 -99.99 -9.99
2019/11/18 21:54 EST    2.54   4.48 -999 -999 -999  41.4  49.3 1006.4 -9.9 -9.999 -99.9 -99.99 -9.99
2019/11/18 22:00 EST    2.67   4.58 -999 -999 -999  41.2  49.3 1006.3 -9.9 -9.999 -99.9 -99.99 -9.99
2019/11/18 22:06 EST    2.79   4.66 -999 -999 -999  41.5  49.3 1006.3 -9.9 -9.999 -99.9 -99.99 -9.99
2019/11/18 22:12 EST    2.91   4.77 -999 -999 -999  41.5  49.3 1006.3 -9.9 -9.999 -99.9 -99.99 -9.99
2019/11/18 22:18 EST    3.03   4.87 -999 -999 -999  41.4  49.3 1006.3 -9.9 -9.999 -99.9 -99.99 -9.99
2019/11/18 22:24 EST    3.14   4.95 -999 -999 -999  41.4  49.1 1006.3 -9.9 -9.999 -99.9 -99.99 -9.99
2019/11/18 22:30 EST    3.25   5.04 -999 -999 -999  41.4  49.1 1006.3 -9.9 -9.999 -99.9 -99.99 -9.99
2019/11/18 22:36 EST    3.36   5.11 -999 -999 -999  41.2  49.1 1006.2 -9.9 -9.999 -99.9 -99.99 -9.99
2019/11/18 22:42 EST    3.46   5.20 -999 -999 -999  41.4  49.1 1006.1 -9.9 -9.999 -99.9 -99.99 -9.99
2019/11/18 22:48 EST    3.56   5.28 -999 -999 -999  41.4  49.1 1006.1 -9.9 -9.999 -99.9 -99.99 -9.99
2019/11/18 22:54 EST    3.66   5.37 -999 -999 -999  41.5  49.1 1006.0 -9.9 -9.999 -99.9 -99.99 -9.99
2019/11/18 23:00 EST    3.75   5.47 -999 -999 -999  41.4  49.1 1006.0 -9.9 -9.999 -99.9 -99.99 -9.99
2019/11/18 23:06 EST    3.83   5.55 -999 -999 -999  41.5  49.1 1006.1 -9.9 -9.999 -99.9 -99.99 -9.99
2019/11/18 23:12 EST    3.91   5.63 -999 -999 -999  41.4  49.1 1006.0 -9.9 -9.999 -99.9 -99.99 -9.99
2019/11/18 23:18 EST    3.99   5.71 -999 -999 -999  41.4  49.3 1006.0 -9.9 -9.999 -99.9 -99.99 -9.99
2019/11/18 23:24 EST    4.06   5.80 -999 -999 -999  41.4  49.3 1006.0 -9.9 -9.999 -99.9 -99.99 -9.99
2019/11/18 23:30 EST    4.13   5.88 -999 -999 -999  41.4  49.3 1005.9 -9.9 -9.999 -99.9 -99.99 -9.99
2019/11/18 23:36 EST    4.19   5.97 -999 -999 -999  41.5  49.3 1005.8 -9.9 -9.999 -99.9 -99.99 -9.99
2019/11/18 23:42 EST    4.24   6.03 -999 -999 -999  41.5  49.5 1005.9 -9.9 -9.999 -99.9 -99.99 -9.99
2019/11/18 23:48 EST    4.30   6.09 -999 -999 -999  41.4  49.5 1006.1 -9.9 -9.999 -99.9 -99.99 -9.99
2019/11/18 23:54 EST    4.34   6.18 -999 -999 -999  41.4  49.5 1006.1 -9.9 -9.999 -99.9 -99.99 -9.99
2019/11/19 00:00 EST    4.39   6.23 -999 -999 -999  41.4  49.5 1006.3 -9.9 -9.999 -99.9 -99.99 -9.99
2019/11/19 00:06 EST    4.42   6.30 -999 -999 -999  41.2  49.5 1006.3 -9.9 -9.999 -99.9 -99.99 -9.99
2019/11/19 00:12 EST    4.46   6.34 -999 -999 -999  41.2  49.6 1006.3 -9.9 -9.999 -99.9 -99.99 -9.99
2019/11/19 00:18 EST    4.49   6.40 -999 -999 -999  41.0  49.6 1006.3 -9.9 -9.999 -99.9 -99.99 -9.99
2019/11/19 00:24 EST    4.51   6.44 -999 -999 -999  41.0  49.6 1006.3 -9.9 -9.999 -99.9 -99.99 -9.99
2019/11/19 00:30 EST    4.53   6.48 -999 -999 -999  40.8  49.8 1006.2 -9.9 -9.999 -99.9 -99.99 -9.99
2019/11/19 00:36 EST    4.55   6.52 -999 -999 -999  40.8  49.8 1006.3 -9.9 -9.999 -99.9 -99.99 -9.99
2019/11/19 00:42 EST    4.56   6.55 -999 -999 -999  40.8  49.8 1006.3 -9.9 -9.999 -99.9 -99.99 -9.99
2019/11/19 00:48 EST    4.57   6.57 -999 -999 -999  41.0  49.8 1006.2 -9.9 -9.999 -99.9 -99.99 -9.99
2019/11/19 00:54 EST    4.57   6.58 -999 -999 -999  41.2  49.8 1006.2 -9.9 -9.999 -99.9 -99.99 -9.99
2019/11/19 01:00 EST    4.57   6.60 -999 -999 -999  41.0  49.8 1006.2 -9.9 -9.999 -99.9 -99.99 -9.99
2019/11/19 01:06 EST    4.56   6.58 -999 -999 -999  41.2  49.8 1006.1 -9.9 -9.999 -99.9 -99.99 -9.99
2019/11/19 01:12 EST    4.55   6.56 -999 -999 -999  41.4  49.8 1006.0 -9.9 -9.999 -99.9 -99.99 -9.99
2019/11/19 01:18 EST    4.54   6.54 -999 -999 -999  41.4  49.8 1006.1 -9.9 -9.999 -99.9 -99.99 -9.99
2019/11/19 01:24 EST    4.52   6.52 -999 -999 -999  41.0  49.8 1006.2 -9.9 -9.999 -99.9 -99.99 -9.99
2019/11/19 01:30 EST    4.50   6.49 -999 -999 -999  41.0  49.8 1006.3 -9.9 -9.999 -99.9 -99.99 -9.99
2019/11/19 01:36 EST    4.47   6.45 -999 -999 -999  41.0  49.6 1006.5 -9.9 -9.999 -99.9 -99.99 -9.99
2019/11/19 01:42 EST    4.43   6.40 -999 -999 -999  41.2  49.6 1006.6 -9.9 -9.999 -99.9 -99.99 -9.99
2019/11/19 01:48 EST    4.39   6.33 -999 -999 -999  41.2  49.6 1006.6 -9.9 -9.999 -99.9 -99.99 -9.99
2019/11/19 01:54 EST    4.35   6.26 -999 -999 -999  41.4  49.6 1006.6 -9.9 -9.999 -99.9 -99.99 -9.99
2019/11/19 02:00 EST    4.30   6.18 -999 -999 -999  41.7  49.6 1006.5 -9.9 -9.999 -99.9 -99.99 -9.99
2019/11/19 02:06 EST    4.25   6.11 -999 -999 -999  41.7  49.6 1006.5 -9.9 -9.999 -99.9 -99.99 -9.99
2019/11/19 02:12 EST    4.19   6.02 -999 -999 -999  41.4  49.6 1006.5 -9.9 -9.999 -99.9 -99.99 -9.99
2019/11/19 02:18 EST    4.12   5.92 -999 -999 -999  41.5  49.6 1006.5 -9.9 -9.999 -99.9 -99.99 -9.99
2019/11/19 02:24 EST    4.05   5.81 -999 -999 -999  41.5  49.6 1006.5 -9.9 -9.999 -99.9 -99.99 -9.99
2019/11/19 02:30 EST    3.98   5.72 -999 -999 -999  41.4  49.5 1006.6 -9.9 -9.999 -99.9 -99.99 -9.99
2019/11/19 02:36 EST    3.90   5.61 -999 -999 -999  41.5  49.5 1006.8 -9.9 -9.999 -99.9 -99.99 -9.99
2019/11/19 02:42 EST    3.82   5.50 -999 -999 -999  41.2  49.5 1006.7 -9.9 -9.999 -99.9 -99.99 -9.99
2019/11/19 02:48 EST    3.73   5.40 -999 -999 -999  41.4  49.5 1006.6 -9.9 -9.999 -99.9 -99.99 -9.99
2019/11/19 02:54 EST    3.64   5.31 -999 -999 -999  41.5  49.5 1006.5 -9.9 -9.999 -99.9 -99.99 -9.99
2019/11/19 03:00 EST    3.54   5.18 -999 -999 -999  41.7  49.5 1006.4 -9.9 -9.999 -99.9 -99.99 -9.99
2019/11/19 03:06 EST    3.44   5.10 -999 -999 -999  41.5  49.5 1006.5 -9.9 -9.999 -99.9 -99.99 -9.99
2019/11/19 03:12 EST    3.34   5.00 -999 -999 -999  41.7  49.5 1006.6 -9.9 -9.999 -99.9 -99.99 -9.99
2019/11/19 03:18 EST    3.23   4.89 -999 -999 -999  41.4  49.5 1006.5 -9.9 -9.999 -99.9 -99.99 -9.99
2019/11/19 03:24 EST    3.13   4.79 -999 -999 -999  41.5  49.5 1006.5 -9.9 -9.999 -99.9 -99.99 -9.99
2019/11/19 03:30 EST    3.02   4.66 -999 -999 -999  41.5  49.5 1006.6 -9.9 -9.999 -99.9 -99.99 -9.99
2019/11/19 03:36 EST    2.91   4.56 -999 -999 -999  41.5  49.5 1006.6 -9.9 -9.999 -99.9 -99.99 -9.99
2019/11/19 03:42 EST    2.80   4.45 -999 -999 -999  41.4  49.5 1006.6 -9.9 -9.999 -99.9 -99.99 -9.99
2019/11/19 03:48 EST    2.68   4.32 -999 -999 -999  41.2  49.5 1006.6 -9.9 -9.999 -99.9 -99.99 -9.99
2019/11/19 03:54 EST    2.57   4.20 -999 -999 -999  41.2  49.5 1006.6 -9.9 -9.999 -99.9 -99.99 -9.99
2019/11/19 04:00 EST    2.46   4.09 -999 -999 -999  41.2  49.5 1006.7 -9.9 -9.999 -99.9 -99.99 -9.99
2019/11/19 04:06 EST    2.36   3.98 -999 -999 -999  41.4  49.5 1006.8 -9.9 -9.999 -99.9 -99.99 -9.99
2019/11/19 04:12 EST    2.25   3.87 -999 -999 -999  41.4  49.5 1006.7 -9.9 -9.999 -99.9 -99.99 -9.99
2019/11/19 04:18 EST    2.14   3.76 -999 -999 -999  41.2  49.5 1006.7 -9.9 -9.999 -99.9 -99.99 -9.99
2019/11/19 04:24 EST    2.04   3.64 -999 -999 -999  41.2  49.5 1006.7 -9.9 -9.999 -99.9 -99.99 -9.99
2019/11/19 04:30 EST    1.94   3.55 -999 -999 -999  41.2  49.5 1006.8 -9.9 -9.999 -99.9 -99.99 -9.99
2019/11/19 04:36 EST    1.85   3.43 -999 -999 -999  41.2  49.5 1006.9 -9.9 -9.999 -99.9 -99.99 -9.99
2019/11/19 04:42 EST    1.75   3.33 -999 -999 -999  41.2  49.3 1006.9 -9.9 -9.999 -99.9 -99.99 -9.99
2019/11/19 04:48 EST    1.66   3.20 -999 -999 -999  41.4  49.3 1006.9 -9.9 -9.999 -99.9 -99.99 -9.99
2019/11/19 04:54 EST    1.58   3.08 -999 -999 -999  41.4  49.3 1006.9 -9.9 -9.999 -99.9 -99.99 -9.99
2019/11/19 05:00 EST    1.50   3.04 -999 -999 -999  41.4  49.3 1006.9 -9.9 -9.999 -99.9 -99.99 -9.99
2019/11/19 05:06 EST    1.42   2.95 -999 -999 -999  41.5  49.1 1007.0 -9.9 -9.999 -99.9 -99.99 -9.99
2019/11/19 05:12 EST    1.35   2.87 -999 -999 -999  41.5  49.1 1007.0 -9.9 -9.999 -99.9 -99.99 -9.99
2019/11/19 05:18 EST    1.28   2.79 -999 -999 -999  41.5  49.1 1007.1 -9.9 -9.999 -99.9 -99.99 -9.99
2019/11/19 05:24 EST    1.21   2.72 -999 -999 -999  41.5  49.1 1007.1 -9.9 -9.999 -99.9 -99.99 -9.99
2019/11/19 05:30 EST    1.16   2.66 -999 -999 -999  41.5  48.9 1007.0 -9.9 -9.999 -99.9 -99.99 -9.99
2019/11/19 05:36 EST    1.10   2.57 -999 -999 -999  41.5  49.1 1007.0 -9.9 -9.999 -99.9 -99.99 -9.99
2019/11/19 05:42 EST    1.05   2.51 -999 -999 -999  41.5  49.1 1007.1 -9.9 -9.999 -99.9 -99.99 -9.99
2019/11/19 05:48 EST    1.00   2.46 -999 -999 -999  41.5  49.1 1007.1 -9.9 -9.999 -99.9 -99.99 -9.99
2019/11/19 05:54 EST    0.96   2.43 -999 -999 -999  41.5  49.1 1007.3 -9.9 -9.999 -99.9 -99.99 -9.99
2019/11/19 06:00 EST    0.92   2.36 -999 -999 -999  41.7  49.1 1007.4 -9.9 -9.999 -99.9 -99.99 -9.99
2019/11/19 06:06 EST    0.89   2.31 -999 -999 -999  41.7  49.1 1007.6 -9.9 -9.999 -99.9 -99.99 -9.99
2019/11/19 06:12 EST    0.85   2.25 -999 -999 -999  41.7  49.1 1007.7 -9.9 -9.999 -99.9 -99.99 -9.99
2019/11/19 06:18 EST    0.83   2.19 -999 -999 -999  41.5  49.1 1007.7 -9.9 -9.999 -99.9 -99.99 -9.99
2019/11/19 06:24 EST    0.80   2.17 -999 -999 -999  41.7  49.1 1007.7 -9.9 -9.999 -99.9 -99.99 -9.99
2019/11/19 06:30 EST    0.78   2.15 -999 -999 -999  41.7  49.1 1007.8 -9.9 -9.999 -99.9 -99.99 -9.99
2019/11/19 06:36 EST    0.77   2.12 -999 -999 -999  41.7  49.1 1007.8 -9.9 -9.999 -99.9 -99.99 -9.99
2019/11/19 06:42 EST    0.75   2.12 -999 -999 -999  41.9  49.1 1007.9 -9.9 -9.999 -99.9 -99.99 -9.99
2019/11/19 06:48 EST    0.74   2.10 -999 -999 -999  41.9  49.1 1007.9 -9.9 -9.999 -99.9 -99.99 -9.99
2019/11/19 06:54 EST    0.74   2.08 -999 -999 -999  41.7  49.1 1007.9 -9.9 -9.999 -99.9 -99.99 -9.99
2019/11/19 07:00 EST    0.74   2.08 -999 -999 -999  41.9  49.1 1008.0 -9.9 -9.999 -99.9 -99.99 -9.99
2019/11/19 07:06 EST    0.74   2.09 -999 -999 -999  41.9  49.3 1008.1 -9.9 -9.999 -99.9 -99.99 -9.99
2019/11/19 07:12 EST    0.75   2.10 -999 -999 -999  41.9  49.3 1008.2 -9.9 -9.999 -99.9 -99.99 -9.99
2019/11/19 07:18 EST    0.76   2.10 -999 -999 -999  41.9  49.3 1008.3 -9.9 -9.999 -99.9 -99.99 -9.99
2019/11/19 07:24 EST    0.77   2.14 -999 -999 -999  41.9  49.3 1008.4 -9.9 -9.999 -99.9 -99.99 -9.99
2019/11/19 07:30 EST    0.79   2.19 -999 -999 -999  42.1  49.3 1008.5 -9.9 -9.999 -99.9 -99.99 -9.99
2019/11/19 07:36 EST    0.82   2.22 -999 -999 -999  42.1  49.3 1008.5 -9.9 -9.999 -99.9 -99.99 -9.99
2019/11/19 07:42 EST    0.85   2.27 -999 -999 -999  42.1  49.3 1008.5 -9.9 -9.999 -99.9 -99.99 -9.99
2019/11/19 07:48 EST    0.88   2.31 -999 -999 -999  42.3  49.3 1008.5 -9.9 -9.999 -99.9 -99.99 -9.99
2019/11/19 07:54 EST    0.92   2.37 -999 -999 -999  42.4  49.3 1008.5 -9.9 -9.999 -99.9 -99.99 -9.99
2019/11/19 08:00 EST    0.97   2.46 -999 -999 -999  42.4  49.3 1008.6 -9.9 -9.999 -99.9 -99.99 -9.99
2019/11/19 08:06 EST    1.02   2.53 -999 -999 -999  42.4  49.3 1008.7 -9.9 -9.999 -99.9 -99.99 -9.99
2019/11/19 08:12 EST    1.08   2.63 -999 -999 -999  42.4  49.3 1008.6 -9.9 -9.999 -99.9 -99.99 -9.99
2019/11/19 08:18 EST    1.14   2.71 -999 -999 -999  42.6  49.3 1008.8 -9.9 -9.999 -99.9 -99.99 -9.99
2019/11/19 08:24 EST    1.21   2.81 -999 -999 -999  43.2  49.3 1008.8 -9.9 -9.999 -99.9 -99.99 -9.99
2019/11/19 08:30 EST    1.29   2.91 -999 -999 -999  43.2  49.5 1008.8 -9.9 -9.999 -99.9 -99.99 -9.99
2019/11/19 08:36 EST    1.37   3.02 -999 -999 -999  43.2  49.5 1008.8 -9.9 -9.999 -99.9 -99.99 -9.99
2019/11/19 08:42 EST    1.46   3.14 -999 -999 -999  43.3  49.5 1008.9 -9.9 -9.999 -99.9 -99.99 -9.99
2019/11/19 08:48 EST    1.55   3.26 -999 -999 -999  43.3  49.5 1008.9 -9.9 -9.999 -99.9 -99.99 -9.99
2019/11/19 08:54 EST    1.65   3.37 -999 -999 -999  43.3  49.5 1009.0 -9.9 -9.999 -99.9 -99.99 -9.99
2019/11/19 09:00 EST    1.76   3.50 -999 -999 -999  43.7  49.5 1009.0 -9.9 -9.999 -99.9 -99.99 -9.99
2019/11/19 09:06 EST    1.87   3.63 -999 -999 -999  44.2  49.5 1009.0 -9.9 -9.999 -99.9 -99.99 -9.99
2019/11/19 09:12 EST    1.99   3.75 -999 -999 -999  44.8  49.5 1008.9 -9.9 -9.999 -99.9 -99.99 -9.99
2019/11/19 09:18 EST    2.10   3.86 -999 -999 -999  44.8  49.5 1008.9 -9.9 -9.999 -99.9 -99.99 -9.99
2019/11/19 09:24 EST    2.23   3.99 -999 -999 -999  44.8  49.5 1008.9 -9.9 -9.999 -99.9 -99.99 -9.99
2019/11/19 09:30 EST    2.36   4.11 -999 -999 -999  44.8  49.5 1009.0 -9.9 -9.999 -99.9 -99.99 -9.99
2019/11/19 09:36 EST    2.49   4.23 -999 -999 -999  44.8  49.5 1009.0 -9.9 -9.999 -99.9 -99.99 -9.99
2019/11/19 09:42 EST    2.62   4.34 -999 -999 -999  45.1  49.5 1009.0 -9.9 -9.999 -99.9 -99.99 -9.99
2019/11/19 09:48 EST    2.75   4.47 -999 -999 -999  45.3  49.5 1009.1 -9.9 -9.999 -99.9 -99.99 -9.99
2019/11/19 09:54 EST    2.89   4.62 -999 -999 -999  45.5  49.6 1009.0 -9.9 -9.999 -99.9 -99.99 -9.99
2019/11/19 10:00 EST    3.03   4.73 -999 -999 -999  45.9  49.6 1009.1 -9.9 -9.999 -99.9 -99.99 -9.99
2019/11/19 10:06 EST    3.16   4.85 -999 -999 -999  45.9  49.6 1009.1 -9.9 -9.999 -99.9 -99.99 -9.99
2019/11/19 10:12 EST    3.30   4.97 -999 -999 -999  45.9  49.6 1009.1 -9.9 -9.999 -99.9 -99.99 -9.99
2019/11/19 10:18 EST    3.44   5.09 -999 -999 -999  46.0  49.6 1009.1 -9.9 -9.999 -99.9 -99.99 -9.99
2019/11/19 10:24 EST    3.57   5.20 -999 -999 -999  45.9  49.6 1009.0 -9.9 -9.999 -99.9 -99.99 -9.99
2019/11/19 10:30 EST    3.70   5.29 -999 -999 -999  46.4  49.6 1009.1 -9.9 -9.999 -99.9 -99.99 -9.99
2019/11/19 10:36 EST    3.83   5.39 -999 -999 -999  46.0  49.6 1009.0 -9.9 -9.999 -99.9 -99.99 -9.99
2019/11/19 10:42 EST    3.95   5.48 -999 -999 -999  46.0  49.6 1008.9 -9.9 -9.999 -99.9 -99.99 -9.99
2019/11/19 10:48 EST    4.07   5.56 -999 -999 -999  46.2  49.6 1008.9 -9.9 -9.999 -99.9 -99.99 -9.99
2019/11/19 10:54 EST    4.19   5.64 -999 -999 -999  46.2  49.6 1008.9 -9.9 -9.999 -99.9 -99.99 -9.99
2019/11/19 11:00 EST    4.30   5.71 -999 -999 -999  46.4  49.6 1008.8 -9.9 -9.999 -99.9 -99.99 -9.99
2019/11/19 11:06 EST    4.41   5.76 -999 -999 -999  46.4  49.6 1008.7 -9.9 -9.999 -99.9 -99.99 -9.99
2019/11/19 11:12 EST    4.51   5.81 -999 -999 -999  46.4  49.6 1008.7 -9.9 -9.999 -99.9 -99.99 -9.99
2019/11/19 11:18 EST    4.61   5.84 -999 -999 -999  46.6  49.6 1008.5 -9.9 -9.999 -99.9 -99.99 -9.99
2019/11/19 11:24 EST    4.70   5.88 -999 -999 -999  46.6  49.6 1008.5 -9.9 -9.999 -99.9 -99.99 -9.99
2019/11/19 11:30 EST    4.78   5.91 -999 -999 -999  46.6  49.8 1008.5 -9.9 -9.999 -99.9 -99.99 -9.99
2019/11/19 11:36 EST    4.86   5.96 -999 -999 -999  46.9  49.8 1008.5 -9.9 -9.999 -99.9 -99.99 -9.99
2019/11/19 11:42 EST    4.93   5.94 -999 -999 -999  46.9  49.8 1008.5 -9.9 -9.999 -99.9 -99.99 -9.99
2019/11/19 11:48 EST    5.00   5.98 -999 -999 -999  46.9  49.8 1008.4 -9.9 -9.999 -99.9 -99.99 -9.99
2019/11/19 11:54 EST    5.06   5.98 -999 -999 -999  46.8  49.8 1008.4 -9.9 -9.999 -99.9 -99.99 -9.99
2019/11/19 12:00 EST    5.11   5.97 -999 -999 -999  47.1  49.8 1008.3 -9.9 -9.999 -99.9 -99.99 -9.99
2019/11/19 12:06 EST    5.16   6.02 -999 -999 -999  47.1  49.8 1008.2 -9.9 -9.999 -99.9 -99.99 -9.99
2019/11/19 12:12 EST    5.20   6.01 -999 -999 -999  46.8  49.8 1008.2 -9.9 -9.999 -99.9 -99.99 -9.99
2019/11/19 12:18 EST    5.24   6.05 -999 -999 -999  46.9  49.8 1008.3 -9.9 -9.999 -99.9 -99.99 -9.99
2019/11/19 12:24 EST    5.27   6.07 -999 -999 -999  46.9  49.8 1008.3 -9.9 -9.999 -99.9 -99.99 -9.99
2019/11/19 12:30 EST    5.30   6.06 -999 -999 -999  48.0  49.8 1008.3 -9.9 -9.999 -99.9 -99.99 -9.99
2019/11/19 12:36 EST    5.32   6.11 -999 -999 -999  47.7  49.8 1008.3 -9.9 -9.999 -99.9 -99.99 -9.99
2019/11/19 12:42 EST    5.33   6.13 -999 -999 -999  47.5  49.8 1008.4 -9.9 -9.999 -99.9 -99.99 -9.99
2019/11/19 12:48 EST    5.34   6.16 -999 -999 -999  47.8  49.8 1008.4 -9.9 -9.999 -99.9 -99.99 -9.99
2019/11/19 12:54 EST    5.35   6.15 -999 -999 -999  48.0  49.8 1008.4 -9.9 -9.999 -99.9 -99.99 -9.99
2019/11/19 13:00 EST    5.35   6.17 -999 -999 -999  47.8  50.0 1008.5 -9.9 -9.999 -99.9 -99.99 -9.99
2019/11/19 13:06 EST    5.34   6.19 -999 -999 -999  47.8  50.0 1008.5 -9.9 -9.999 -99.9 -99.99 -9.99
2019/11/19 13:12 EST    5.33   6.21 -999 -999 -999  47.7  50.0 1008.5 -9.9 -9.999 -99.9 -99.99 -9.99
2019/11/19 13:18 EST    5.32   6.21 -999 -999 -999  48.0  50.0 1008.5 -9.9 -9.999 -99.9 -99.99 -9.99
2019/11/19 13:24 EST    5.30   6.23 -999 -999 -999  48.0  50.0 1008.4 -9.9 -9.999 -99.9 -99.99 -9.99
2019/11/19 13:30 EST    5.28   6.21 -999 -999 -999  47.8  50.0 1008.3 -9.9 -9.999 -99.9 -99.99 -9.99
2019/11/19 13:36 EST    5.25   6.22 -999 -999 -999  47.7  50.0 1008.3 -9.9 -9.999 -99.9 -99.99 -9.99
2019/11/19 13:42 EST    5.22   6.22 -999 -999 -999  47.7  50.0 1008.3 -9.9 -9.999 -99.9 -99.99 -9.99
2019/11/19 13:48 EST    5.18 -99.99 -999 -999 -999 -99.9 -99.9 -999.9 -9.9 -9.999 -99.9 -99.99 -9.99
2019/11/19 13:54 EST    5.14 -99.99 -999 -999 -999 -99.9 -99.9 -999.9 -9.9 -9.999 -99.9 -99.99 -9.99
2019/11/19 14:00 EST    5.09 -99.99 -999 -999 -999 -99.9 -99.9 -999.9 -9.9 -9.999 -99.9 -99.99 -9.99
2019/11/19 14:06 EST    5.04 -99.99 -999 -999 -999 -99.9 -99.9 -999.9 -9.9 -9.999 -99.9 -99.99 -9.99
2019/11/19 14:12 EST    4.98 -99.99 -999 -999 -999 -99.9 -99.9 -999.9 -9.9 -9.999 -99.9 -99.99 -9.99
2019/11/19 14:18 EST    4.92 -99.99 -999 -999 -999 -99.9 -99.9 -999.9 -9.9 -9.999 -99.9 -99.99 -9.99
2019/11/19 14:24 EST    4.86 -99.99 -999 -999 -999 -99.9 -99.9 -999.9 -9.9 -9.999 -99.9 -99.99 -9.99
2019/11/19 14:30 EST    4.78 -99.99 -999 -999 -999 -99.9 -99.9 -999.9 -9.9 -9.999 -99.9 -99.99 -9.99
2019/11/19 14:36 EST    4.71 -99.99 -999 -999 -999 -99.9 -99.9 -999.9 -9.9 -9.999 -99.9 -99.99 -9.99
2019/11/19 14:42 EST    4.63 -99.99 -999 -999 -999 -99.9 -99.9 -999.9 -9.9 -9.999 -99.9 -99.99 -9.99
2019/11/19 14:48 EST    4.54 -99.99 -999 -999 -999 -99.9 -99.9 -999.9 -9.9 -9.999 -99.9 -99.99 -9.99
2019/11/19 14:54 EST    4.46 -99.99 -999 -999 -999 -99.9 -99.9 -999.9 -9.9 -9.999 -99.9 -99.99 -9.99
2019/11/19 15:00 EST    4.36 -99.99 -999 -999 -999 -99.9 -99.9 -999.9 -9.9 -9.999 -99.9 -99.99 -9.99
2019/11/19 15:06 EST    4.27 -99.99 -999 -999 -999 -99.9 -99.9 -999.9 -9.9 -9.999 -99.9 -99.99 -9.99
2019/11/19 15:12 EST    4.16 -99.99 -999 -999 -999 -99.9 -99.9 -999.9 -9.9 -9.999 -99.9 -99.99 -9.99
2019/11/19 15:18 EST    4.06 -99.99 -999 -999 -999 -99.9 -99.9 -999.9 -9.9 -9.999 -99.9 -99.99 -9.99
2019/11/19 15:24 EST    3.95 -99.99 -999 -999 -999 -99.9 -99.9 -999.9 -9.9 -9.999 -99.9 -99.99 -9.99
2019/11/19 15:30 EST    3.84 -99.99 -999 -999 -999 -99.9 -99.9 -999.9 -9.9 -9.999 -99.9 -99.99 -9.99
2019/11/19 15:36 EST    3.73 -99.99 -999 -999 -999 -99.9 -99.9 -999.9 -9.9 -9.999 -99.9 -99.99 -9.99
2019/11/19 15:42 EST    3.61 -99.99 -999 -999 -999 -99.9 -99.9 -999.9 -9.9 -9.999 -99.9 -99.99 -9.99
2019/11/19 15:48 EST    3.50 -99.99 -999 -999 -999 -99.9 -99.9 -999.9 -9.9 -9.999 -99.9 -99.99 -9.99
2019/11/19 15:54 EST    3.38 -99.99 -999 -999 -999 -99.9 -99.9 -999.9 -9.9 -9.999 -99.9 -99.99 -9.99
2019/11/19 16:00 EST    3.26 -99.99 -999 -999 -999 -99.9 -99.9 -999.9 -9.9 -9.999 -99.9 -99.99 -9.99
2019/11/19 16:06 EST    3.14 -99.99 -999 -999 -999 -99.9 -99.9 -999.9 -9.9 -9.999 -99.9 -99.99 -9.99
2019/11/19 16:12 EST    3.02 -99.99 -999 -999 -999 -99.9 -99.9 -999.9 -9.9 -9.999 -99.9 -99.99 -9.99
2019/11/19 16:18 EST    2.90 -99.99 -999 -999 -999 -99.9 -99.9 -999.9 -9.9 -9.999 -99.9 -99.99 -9.99
2019/11/19 16:24 EST    2.78 -99.99 -999 -999 -999 -99.9 -99.9 -999.9 -9.9 -9.999 -99.9 -99.99 -9.99
2019/11/19 16:30 EST    2.67 -99.99 -999 -999 -999 -99.9 -99.9 -999.9 -9.9 -9.999 -99.9 -99.99 -9.99
2019/11/19 16:36 EST    2.55 -99.99 -999 -999 -999 -99.9 -99.9 -999.9 -9.9 -9.999 -99.9 -99.99 -9.99
2019/11/19 16:42 EST    2.44 -99.99 -999 -999 -999 -99.9 -99.9 -999.9 -9.9 -9.999 -99.9 -99.99 -9.99
2019/11/19 16:48 EST    2.33 -99.99 -999 -999 -999 -99.9 -99.9 -999.9 -9.9 -9.999 -99.9 -99.99 -9.99
2019/11/19 16:54 EST    2.22 -99.99 -999 -999 -999 -99.9 -99.9 -999.9 -9.9 -9.999 -99.9 -99.99 -9.99
2019/11/19 17:00 EST    2.11 -99.99 -999 -999 -999 -99.9 -99.9 -999.9 -9.9 -9.999 -99.9 -99.99 -9.99
2019/11/19 17:06 EST    2.01 -99.99 -999 -999 -999 -99.9 -99.9 -999.9 -9.9 -9.999 -99.9 -99.99 -9.99
2019/11/19 17:12 EST    1.91 -99.99 -999 -999 -999 -99.9 -99.9 -999.9 -9.9 -9.999 -99.9 -99.99 -9.99
2019/11/19 17:18 EST    1.81 -99.99 -999 -999 -999 -99.9 -99.9 -999.9 -9.9 -9.999 -99.9 -99.99 -9.99
2019/11/19 17:24 EST    1.72 -99.99 -999 -999 -999 -99.9 -99.9 -999.9 -9.9 -9.999 -99.9 -99.99 -9.99
2019/11/19 17:30 EST    1.63 -99.99 -999 -999 -999 -99.9 -99.9 -999.9 -9.9 -9.999 -99.9 -99.99 -9.99
2019/11/19 17:36 EST    1.55 -99.99 -999 -999 -999 -99.9 -99.9 -999.9 -9.9 -9.999 -99.9 -99.99 -9.99
2019/11/19 17:42 EST    1.46 -99.99 -999 -999 -999 -99.9 -99.9 -999.9 -9.9 -9.999 -99.9 -99.99 -9.99
2019/11/19 17:48 EST    1.38 -99.99 -999 -999 -999 -99.9 -99.9 -999.9 -9.9 -9.999 -99.9 -99.99 -9.99
2019/11/19 17:54 EST    1.31 -99.99 -999 -999 -999 -99.9 -99.9 -999.9 -9.9 -9.999 -99.9 -99.99 -9.99
2019/11/19 18:00 EST    1.24 -99.99 -999 -999 -999 -99.9 -99.9 -999.9 -9.9 -9.999 -99.9 -99.99 -9.99
2019/11/19 18:06 EST    1.17 -99.99 -999 -999 -999 -99.9 -99.9 -999.9 -9.9 -9.999 -99.9 -99.99 -9.99
2019/11/19 18:12 EST    1.10 -99.99 -999 -999 -999 -99.9 -99.9 -999.9 -9.9 -9.999 -99.9 -99.99 -9.99
2019/11/19 18:18 EST    1.03 -99.99 -999 -999 -999 -99.9 -99.9 -999.9 -9.9 -9.999 -99.9 -99.99 -9.99
2019/11/19 18:24 EST    0.97 -99.99 -999 -999 -999 -99.9 -99.9 -999.9 -9.9 -9.999 -99.9 -99.99 -9.99
2019/11/19 18:30 EST    0.92 -99.99 -999 -999 -999 -99.9 -99.9 -999.9 -9.9 -9.999 -99.9 -99.99 -9.99
2019/11/19 18:36 EST    0.86 -99.99 -999 -999 -999 -99.9 -99.9 -999.9 -9.9 -9.999 -99.9 -99.99 -9.99
2019/11/19 18:42 EST    0.81 -99.99 -999 -999 -999 -99.9 -99.9 -999.9 -9.9 -9.999 -99.9 -99.99 -9.99
2019/11/19 18:48 EST    0.75 -99.99 -999 -999 -999 -99.9 -99.9 -999.9 -9.9 -9.999 -99.9 -99.99 -9.99
2019/11/19 18:54 EST    0.71 -99.99 -999 -999 -999 -99.9 -99.9 -999.9 -9.9 -9.999 -99.9 -99.99 -9.99
2019/11/19 19:00 EST    0.66 -99.99 -999 -999 -999 -99.9 -99.9 -999.9 -9.9 -9.999 -99.9 -99.99 -9.99
2019/11/19 19:06 EST    0.62 -99.99 -999 -999 -999 -99.9 -99.9 -999.9 -9.9 -9.999 -99.9 -99.99 -9.99
2019/11/19 19:12 EST    0.57 -99.99 -999 -999 -999 -99.9 -99.9 -999.9 -9.9 -9.999 -99.9 -99.99 -9.99
2019/11/19 19:18 EST    0.54 -99.99 -999 -999 -999 -99.9 -99.9 -999.9 -9.9 -9.999 -99.9 -99.99 -9.99
2019/11/19 19:24 EST    0.50 -99.99 -999 -999 -999 -99.9 -99.9 -999.9 -9.9 -9.999 -99.9 -99.99 -9.99
2019/11/19 19:30 EST    0.47 -99.99 -999 -999 -999 -99.9 -99.9 -999.9 -9.9 -9.999 -99.9 -99.99 -9.99
2019/11/19 19:36 EST    0.44 -99.99 -999 -999 -999 -99.9 -99.9 -999.9 -9.9 -9.999 -99.9 -99.99 -9.99
2019/11/19 19:42 EST    0.41 -99.99 -999 -999 -999 -99.9 -99.9 -999.9 -9.9 -9.999 -99.9 -99.99 -9.99
2019/11/19 19:48 EST    0.39 -99.99 -999 -999 -999 -99.9 -99.9 -999.9 -9.9 -9.999 -99.9 -99.99 -9.99
2019/11/19 19:54 EST    0.37 -99.99 -999 -999 -999 -99.9 -99.9 -999.9 -9.9 -9.999 -99.9 -99.99 -9.99
Notice: This station is currently in high water condition.